createdAt,value
2022-11-05T00:01:35.149Z,100308.00
2022-11-05T00:04:20.313Z,100314.00
2022-11-05T00:07:02.598Z,100313.00
2022-11-05T00:09:33.757Z,100321.00
2022-11-05T00:12:19.563Z,100318.00
2022-11-05T00:15:02.309Z,100326.00
2022-11-05T00:17:32.140Z,100334.00
2022-11-05T00:20:04.852Z,100341.00
2022-11-05T00:22:47.255Z,100342.00
2022-11-05T00:25:17.502Z,100326.00
2022-11-05T00:27:49.718Z,100347.00
2022-11-05T00:30:23.091Z,100348.00
2022-11-05T00:32:54.524Z,100352.00
2022-11-05T00:35:26.934Z,100355.00
2022-11-05T00:37:56.950Z,100348.00
2022-11-05T00:40:26.823Z,100357.00
2022-11-05T00:43:09.407Z,100356.00
2022-11-05T00:45:41.117Z,100356.00
2022-11-05T00:48:23.467Z,100365.00
2022-11-05T00:50:55.882Z,100360.00
2022-11-05T00:53:25.816Z,100370.00
2022-11-05T00:55:55.669Z,100369.00
2022-11-05T00:58:27.285Z,100370.00
2022-11-05T01:00:59.069Z,100367.00
2022-11-05T01:03:32.084Z,100379.00
2022-11-05T01:06:12.798Z,100375.00
2022-11-05T01:08:43.774Z,100375.00
2022-11-05T01:11:33.246Z,100373.00
2022-11-05T01:14:05.187Z,100377.00
2022-11-05T01:16:35.516Z,100391.00
2022-11-05T01:19:07.126Z,100391.00
2022-11-05T01:21:39.751Z,100391.00
2022-11-05T01:24:10.983Z,100388.00
2022-11-05T01:26:40.800Z,100392.00
2022-11-05T01:29:10.987Z,100397.00
2022-11-05T01:31:40.901Z,100392.00
2022-11-05T01:34:10.715Z,100401.00
2022-11-05T01:36:43.096Z,100395.00
2022-11-05T01:39:12.935Z,100395.00
2022-11-05T01:41:42.742Z,100397.00
2022-11-05T01:44:58.687Z,100408.00
2022-11-05T01:47:58.181Z,100407.00
2022-11-05T01:50:44.303Z,100404.00
2022-11-05T01:53:28.169Z,100414.00
2022-11-05T01:56:03.162Z,100407.00
2022-11-05T01:58:39.748Z,100407.00
2022-11-05T02:01:09.602Z,100409.00
2022-11-05T02:03:39.614Z,100413.00
2022-11-05T02:06:10.479Z,100416.00
2022-11-05T02:12:01.214Z,100431.00
2022-11-05T02:14:31.026Z,100421.00
2022-11-05T02:17:07.567Z,100431.00
2022-11-05T02:20:11.731Z,100432.00
2022-11-05T02:23:12.272Z,100442.00
2022-11-05T02:26:14.694Z,100450.00
2022-11-05T02:29:29.718Z,100441.00
2022-11-05T02:32:12.845Z,100446.00
2022-11-05T02:34:54.052Z,100446.00
2022-11-05T02:37:35.739Z,100448.00
2022-11-05T02:40:16.786Z,100461.00
2022-11-05T02:42:52.218Z,100456.00
2022-11-05T02:45:38.026Z,100468.00
2022-11-05T02:48:18.243Z,100464.00
2022-11-05T02:50:57.085Z,100467.00
2022-11-05T02:53:36.882Z,100470.00
2022-11-05T02:56:12.258Z,100474.00
2022-11-05T02:58:42.095Z,100475.00
2022-11-05T03:01:14.088Z,100479.00
2022-11-05T03:03:49.794Z,100474.00
2022-11-05T03:06:51.581Z,100482.00
2022-11-05T03:10:08.567Z,100495.00
2022-11-05T03:12:52.688Z,100493.00
2022-11-05T03:15:39.221Z,100501.00
2022-11-05T03:18:15.998Z,100496.00
2022-11-05T03:20:54.252Z,100504.00
2022-11-05T03:23:32.147Z,100515.00
2022-11-05T03:26:09.656Z,100505.00
2022-11-05T03:28:45.253Z,100517.00
2022-11-05T03:31:17.188Z,100517.00
2022-11-05T03:33:48.467Z,100529.00
2022-11-05T03:36:28.214Z,100528.00
2022-11-05T03:39:00.338Z,100530.00
2022-11-05T03:41:32.402Z,100525.00
2022-11-05T03:44:07.928Z,100528.00
2022-11-05T03:46:42.400Z,100531.00
2022-11-05T03:49:20.378Z,100537.00
2022-11-05T03:51:59.534Z,100542.00
2022-11-05T03:54:29.575Z,100531.00
2022-11-05T03:57:07.672Z,100539.00
2022-11-05T03:59:44.258Z,100530.00
2022-11-05T04:02:16.739Z,100537.00
2022-11-05T04:04:47.263Z,100548.00
2022-11-05T04:07:32.231Z,100550.00
2022-11-05T04:10:14.920Z,100557.00
2022-11-05T04:13:03.267Z,100554.00
2022-11-05T04:15:53.139Z,100557.00
2022-11-05T04:18:20.370Z,100553.00
2022-11-05T04:21:02.732Z,100568.00
2022-11-05T04:23:47.855Z,100571.00
2022-11-05T04:26:23.281Z,100570.00
2022-11-05T04:29:07.945Z,100570.00
2022-11-05T04:31:37.979Z,100575.00
2022-11-05T04:34:08.159Z,100572.00
2022-11-05T04:36:37.986Z,100583.00
2022-11-05T04:39:10.381Z,100573.00
2022-11-05T04:41:40.222Z,100590.00
2022-11-05T04:44:10.056Z,100583.00
2022-11-05T04:46:39.874Z,100593.00
2022-11-05T04:49:09.686Z,100590.00
2022-11-05T04:51:39.560Z,100586.00
2022-11-05T04:54:11.991Z,100590.00
2022-11-05T04:56:41.817Z,100596.00
2022-11-05T04:59:11.643Z,100608.00
2022-11-05T05:01:41.549Z,100601.00
2022-11-05T05:04:11.420Z,100599.00
2022-11-05T05:06:41.235Z,100598.00
2022-11-05T05:09:13.656Z,100592.00
2022-11-05T05:11:43.490Z,100601.00
2022-11-05T05:14:13.286Z,100588.00
2022-11-05T05:16:43.133Z,100600.00
2022-11-05T05:19:12.954Z,100601.00
2022-11-05T05:21:40.604Z,100600.00
2022-11-05T05:24:16.316Z,100606.00
2022-11-05T05:26:48.900Z,100611.00
2022-11-05T05:29:20.283Z,100610.00
2022-11-05T05:31:50.110Z,100617.00
2022-11-05T05:34:19.927Z,100616.00
2022-11-05T05:36:49.780Z,100625.00
2022-11-05T05:39:22.262Z,100623.00
2022-11-05T05:41:52.067Z,100635.00
2022-11-05T05:44:22.270Z,100633.00
2022-11-05T05:46:52.110Z,100643.00
2022-11-05T05:49:21.922Z,100645.00
2022-11-05T05:51:52.483Z,100651.00
2022-11-05T05:54:31.757Z,100653.00
2022-11-05T05:57:02.617Z,100659.00
2022-11-05T05:59:32.470Z,100664.00
2022-11-05T06:02:02.341Z,100666.00
2022-11-05T06:04:32.316Z,100674.00
2022-11-05T06:07:02.126Z,100675.00
2022-11-05T06:09:34.571Z,100684.00
2022-11-05T06:12:04.367Z,100688.00
2022-11-05T06:14:36.704Z,100693.00
2022-11-05T06:17:06.515Z,100696.00
2022-11-05T06:19:36.354Z,100692.00
2022-11-05T06:22:06.204Z,100695.00
2022-11-05T06:24:38.615Z,100694.00
2022-11-05T06:27:08.733Z,100702.00
2022-11-05T06:29:38.651Z,100711.00
2022-11-05T06:32:08.524Z,100711.00
2022-11-05T06:34:39.486Z,100717.00
2022-11-05T06:37:09.325Z,100726.00
2022-11-05T06:39:41.751Z,100722.00
2022-11-05T06:42:18.501Z,100738.00
2022-11-05T06:44:49.343Z,100738.00
2022-11-05T06:47:19.191Z,100744.00
2022-11-05T06:49:49.279Z,100741.00
2022-11-05T06:52:19.513Z,100755.00
2022-11-05T06:54:52.188Z,100758.00
2022-11-05T06:57:22.003Z,100760.00
2022-11-05T06:59:55.714Z,100756.00
2022-11-05T07:02:28.654Z,100758.00
2022-11-05T07:04:58.461Z,100761.00
2022-11-05T07:07:28.267Z,100764.00
2022-11-05T07:10:00.703Z,100760.00
2022-11-05T07:12:30.522Z,100773.00
2022-11-05T07:15:00.500Z,100778.00
2022-11-05T07:17:30.435Z,100768.00
2022-11-05T07:20:00.287Z,100775.00
2022-11-05T07:22:30.144Z,100780.00
2022-11-05T07:25:02.577Z,100777.00
2022-11-05T07:27:32.455Z,100776.00
2022-11-05T07:30:02.253Z,100781.00
2022-11-05T07:32:32.106Z,100777.00
2022-11-05T07:35:01.908Z,100778.00
2022-11-05T07:37:31.772Z,100772.00
2022-11-05T07:40:04.185Z,100764.00
2022-11-05T07:42:34.021Z,100785.00
2022-11-05T07:45:03.872Z,100786.00
2022-11-05T07:47:33.691Z,100793.00
2022-11-05T07:50:03.495Z,100797.00
2022-11-05T07:52:34.467Z,100801.00
2022-11-05T07:55:08.271Z,100799.00
2022-11-05T07:57:44.866Z,100796.00
2022-11-05T08:00:17.979Z,100807.00
2022-11-05T08:02:48.005Z,100802.00
2022-11-05T08:05:18.002Z,100811.00
2022-11-05T08:07:47.818Z,100816.00
2022-11-05T08:10:20.389Z,100817.00
2022-11-05T08:12:50.260Z,100815.00
2022-11-05T08:15:20.305Z,100820.00
2022-11-05T08:17:50.343Z,100827.00
2022-11-05T08:20:20.372Z,100830.00
2022-11-05T08:22:50.198Z,100828.00
2022-11-05T08:25:22.801Z,100832.00
2022-11-05T08:27:59.107Z,100850.00
2022-11-05T08:30:29.562Z,100846.00
2022-11-05T08:33:01.142Z,100851.00
2022-11-05T08:35:31.706Z,100849.00
2022-11-05T08:38:03.054Z,100849.00
2022-11-05T08:40:38.725Z,100851.00
2022-11-05T08:43:11.177Z,100855.00
2022-11-05T08:45:42.145Z,100861.00
2022-11-05T08:48:15.052Z,100862.00
2022-11-05T08:50:45.745Z,100844.00
2022-11-05T08:53:16.851Z,100853.00
2022-11-05T08:55:51.097Z,100861.00
2022-11-05T08:58:21.682Z,100860.00
2022-11-05T09:00:52.987Z,100871.00
2022-11-05T09:03:23.149Z,100873.00
2022-11-05T09:05:52.994Z,100880.00
2022-11-05T09:08:22.874Z,100880.00
2022-11-05T09:10:55.282Z,100887.00
2022-11-05T09:13:25.966Z,100892.00
2022-11-05T09:15:56.417Z,100893.00
2022-11-05T09:18:26.262Z,100890.00
2022-11-05T09:20:56.144Z,100904.00
2022-11-05T09:23:25.968Z,100904.00
2022-11-05T09:25:58.375Z,100901.00
2022-11-05T09:28:28.505Z,100914.00
2022-11-05T09:30:58.374Z,100913.00
2022-11-05T09:33:29.279Z,100925.00
2022-11-05T09:36:03.291Z,100924.00
2022-11-05T09:38:34.902Z,100915.00
2022-11-05T09:41:11.571Z,100916.00
2022-11-05T09:43:45.295Z,100926.00
2022-11-05T09:46:21.472Z,100922.00
2022-11-05T09:48:55.922Z,100922.00
2022-11-05T09:51:26.422Z,100928.00
2022-11-05T09:53:56.455Z,100925.00
2022-11-05T09:56:33.918Z,100923.00
2022-11-05T09:59:08.174Z,100936.00
2022-11-05T10:01:40.766Z,100922.00
2022-11-05T10:04:17.766Z,100922.00
2022-11-05T10:06:52.605Z,100933.00
2022-11-05T10:09:27.894Z,100936.00
2022-11-05T10:12:09.337Z,100926.00
2022-11-05T10:14:44.692Z,100935.00
2022-11-05T10:17:22.244Z,100935.00
2022-11-05T10:19:58.365Z,100942.00
2022-11-05T10:22:28.362Z,100944.00
2022-11-05T10:24:58.793Z,100947.00
2022-11-05T10:27:36.405Z,100939.00
2022-11-05T10:30:07.871Z,100954.00
2022-11-05T10:32:42.056Z,100949.00
2022-11-05T10:35:18.510Z,100952.00
2022-11-05T10:37:49.220Z,100958.00
2022-11-05T10:40:32.910Z,100957.00
2022-11-05T10:43:13.604Z,100959.00
2022-11-05T10:45:55.643Z,100971.00
2022-11-05T10:48:52.457Z,100981.00
2022-11-05T10:51:23.492Z,100969.00
2022-11-05T10:54:01.986Z,100975.00
2022-11-05T10:56:37.682Z,100975.00
2022-11-05T10:59:24.339Z,100972.00
2022-11-05T11:02:03.409Z,100973.00
2022-11-05T11:04:37.852Z,100974.00
2022-11-05T11:07:08.285Z,100973.00
2022-11-05T11:09:39.894Z,100971.00
2022-11-05T11:12:17.848Z,100981.00
2022-11-05T11:15:03.754Z,100976.00
2022-11-05T11:17:35.390Z,100978.00
2022-11-05T11:20:31.683Z,100976.00
2022-11-05T11:23:20.101Z,100977.00
2022-11-05T11:25:54.437Z,100975.00
2022-11-05T11:28:29.613Z,100979.00
2022-11-05T11:31:10.958Z,100978.00
2022-11-05T11:33:42.987Z,100982.00
2022-11-05T11:36:15.231Z,100982.00
2022-11-05T11:38:45.939Z,100983.00
2022-11-05T11:41:30.867Z,100990.00
2022-11-05T11:44:07.818Z,100983.00
2022-11-05T11:46:40.625Z,100985.00
2022-11-05T11:49:32.907Z,100981.00
2022-11-05T11:52:07.138Z,100979.00
2022-11-05T11:54:37.659Z,100982.00
2022-11-05T11:57:28.022Z,100987.00
2022-11-05T12:00:09.151Z,100983.00
2022-11-05T12:03:22.272Z,100983.00
2022-11-05T12:05:58.371Z,100981.00
2022-11-05T12:08:45.842Z,100978.00
2022-11-05T12:11:25.153Z,100985.00
2022-11-05T12:14:04.361Z,100982.00
2022-11-05T12:17:07.363Z,100987.00
2022-11-05T12:20:19.788Z,100992.00
2022-11-05T12:23:07.763Z,100992.00
2022-11-05T12:25:45.721Z,100991.00
2022-11-05T12:28:36.262Z,100990.00
2022-11-05T12:31:18.799Z,100990.00
2022-11-05T12:34:01.316Z,100998.00
2022-11-05T12:36:58.619Z,100997.00
2022-11-05T12:39:46.666Z,100999.00
2022-11-05T12:42:34.906Z,101003.00
2022-11-05T12:45:08.004Z,101004.00
2022-11-05T12:48:03.602Z,101001.00
2022-11-05T12:50:42.714Z,101002.00
2022-11-05T12:53:42.885Z,100996.00
2022-11-05T12:56:20.003Z,100996.00
2022-11-05T12:58:58.567Z,100996.00
2022-11-05T13:01:35.824Z,100985.00
2022-11-05T13:04:16.386Z,100997.00
2022-11-05T13:06:52.904Z,101004.00
2022-11-05T13:09:29.313Z,101005.00
2022-11-05T13:12:07.350Z,100997.00
2022-11-05T13:14:44.710Z,100996.00
2022-11-05T13:17:18.030Z,101007.00
2022-11-05T13:19:59.951Z,101012.00
2022-11-05T13:22:38.746Z,101005.00
2022-11-05T13:25:21.384Z,101013.00
2022-11-05T13:27:59.230Z,101013.00
2022-11-05T13:30:33.190Z,101010.00
2022-11-05T13:33:07.135Z,101016.00
2022-11-05T13:35:44.888Z,101023.00
2022-11-05T13:38:37.381Z,101025.00
2022-11-05T13:41:29.924Z,101025.00
2022-11-05T13:44:29.715Z,101040.00
2022-11-05T13:47:34.552Z,101029.00
2022-11-05T13:50:47.236Z,101041.00
2022-11-05T13:53:49.187Z,101043.00
2022-11-05T13:56:53.272Z,101039.00
2022-11-05T14:00:01.833Z,101055.00
2022-11-05T14:02:40.355Z,101041.00
2022-11-05T14:05:25.054Z,101046.00
2022-11-05T14:07:56.689Z,101047.00
2022-11-05T14:10:37.719Z,101049.00
2022-11-05T14:13:23.789Z,101042.00
2022-11-05T14:16:06.152Z,101050.00
2022-11-05T14:18:43.962Z,101042.00
2022-11-05T14:21:50.061Z,101053.00
2022-11-05T14:24:45.781Z,101048.00
2022-11-05T14:27:47.097Z,101047.00
2022-11-05T14:30:46.191Z,101043.00
2022-11-05T14:33:32.748Z,101049.00
2022-11-05T14:36:39.322Z,101059.00
2022-11-05T14:39:27.319Z,101054.00
2022-11-05T14:42:04.731Z,101059.00
2022-11-05T14:44:37.909Z,101065.00
2022-11-05T14:47:24.552Z,101055.00
2022-11-05T14:50:00.254Z,101062.00
2022-11-05T14:52:30.554Z,101067.00
2022-11-05T14:55:01.390Z,101072.00
2022-11-05T14:58:29.484Z,101076.00
2022-11-05T15:01:00.937Z,101074.00
2022-11-05T15:04:06.151Z,101084.00
2022-11-05T15:06:38.798Z,101085.00
2022-11-05T15:09:32.082Z,101082.00
2022-11-05T15:12:11.340Z,101088.00
2022-11-05T15:14:49.642Z,101082.00
2022-11-05T15:17:29.667Z,101088.00
2022-11-05T15:20:11.529Z,101087.00
2022-11-05T15:22:45.272Z,101085.00
2022-11-05T15:25:21.743Z,101093.00
2022-11-05T15:28:07.902Z,101102.00
2022-11-05T15:30:37.776Z,101088.00
2022-11-05T15:33:21.946Z,101094.00
2022-11-05T15:35:54.410Z,101087.00
2022-11-05T15:38:34.070Z,101094.00
2022-11-05T15:41:07.398Z,101081.00
2022-11-05T15:43:37.231Z,101086.00
2022-11-05T15:46:11.205Z,101089.00
2022-11-05T15:48:41.081Z,101091.00
2022-11-05T15:51:15.311Z,101089.00
2022-11-05T15:54:31.948Z,101084.00
2022-11-05T15:56:57.338Z,101086.00
2022-11-05T15:59:30.260Z,101094.00
2022-11-05T16:02:25.728Z,101092.00
2022-11-05T16:04:55.934Z,101090.00
2022-11-05T16:07:29.546Z,101087.00
2022-11-05T16:10:01.900Z,101091.00
2022-11-05T16:12:37.832Z,101090.00
2022-11-05T16:15:26.408Z,101093.00
2022-11-05T16:17:59.154Z,101099.00
2022-11-05T16:20:33.704Z,101095.00
2022-11-05T16:23:09.172Z,101105.00
2022-11-05T16:25:42.603Z,101102.00
2022-11-05T16:28:24.854Z,101104.00
2022-11-05T16:30:57.406Z,101109.00
2022-11-05T16:33:28.181Z,101106.00
2022-11-05T16:35:58.036Z,101106.00
2022-11-05T16:38:30.974Z,101121.00
2022-11-05T16:41:01.219Z,101114.00
2022-11-05T16:43:31.075Z,101124.00
2022-11-05T16:46:02.564Z,101122.00
2022-11-05T16:48:32.515Z,101119.00
2022-11-05T16:51:02.557Z,101124.00
2022-11-05T16:53:34.960Z,101129.00
2022-11-05T16:56:05.919Z,101128.00
2022-11-05T16:58:35.816Z,101134.00
2022-11-05T17:01:10.544Z,101126.00
2022-11-05T17:03:40.307Z,101141.00
2022-11-05T17:06:10.770Z,101138.00
2022-11-05T17:08:44.411Z,101146.00
2022-11-05T17:11:17.658Z,101155.00
2022-11-05T17:13:48.363Z,101158.00
2022-11-05T17:16:20.257Z,101157.00
2022-11-05T17:18:50.070Z,101148.00
2022-11-05T17:21:20.147Z,101157.00
2022-11-05T17:23:52.582Z,101165.00
2022-11-05T17:26:22.803Z,101166.00
2022-11-05T17:28:52.714Z,101164.00
2022-11-05T17:31:22.563Z,101171.00
2022-11-05T17:33:52.431Z,101181.00
2022-11-05T17:36:22.255Z,101173.00
2022-11-05T17:38:55.810Z,101177.00
2022-11-05T17:41:27.163Z,101172.00
2022-11-05T17:44:00.363Z,101168.00
2022-11-05T17:46:30.364Z,101178.00
2022-11-05T17:49:00.156Z,101176.00
2022-11-05T17:51:29.986Z,101182.00
2022-11-05T17:54:02.409Z,101179.00
2022-11-05T17:56:34.974Z,101189.00
2022-11-05T17:59:06.928Z,101195.00
2022-11-05T18:01:43.338Z,101201.00
2022-11-05T18:04:13.635Z,101198.00
2022-11-05T18:06:44.390Z,101194.00
2022-11-05T18:09:17.223Z,101209.00
2022-11-05T18:11:47.138Z,101199.00
2022-11-05T18:14:22.832Z,101205.00
2022-11-05T18:16:55.464Z,101200.00
2022-11-05T18:19:25.421Z,101205.00
2022-11-05T18:21:55.422Z,101206.00
2022-11-05T18:24:27.886Z,101207.00
2022-11-05T18:26:57.711Z,101205.00
2022-11-05T18:29:27.744Z,101208.00
2022-11-05T18:31:57.583Z,101204.00
2022-11-05T18:34:27.425Z,101198.00
2022-11-05T18:36:57.257Z,101198.00
2022-11-05T18:39:29.648Z,101193.00
2022-11-05T18:41:59.498Z,101194.00
2022-11-05T18:44:29.419Z,101187.00
2022-11-05T18:46:59.379Z,101191.00
2022-11-05T18:49:29.450Z,101182.00
2022-11-05T18:51:59.246Z,101183.00
2022-11-05T18:54:31.808Z,101183.00
2022-11-05T18:57:01.658Z,101183.00
2022-11-05T18:59:39.747Z,101178.00
2022-11-05T19:02:11.311Z,101181.00
2022-11-05T19:04:55.296Z,101190.00
2022-11-05T19:07:32.015Z,101189.00
2022-11-05T19:10:04.409Z,101188.00
2022-11-05T19:12:34.262Z,101195.00
2022-11-05T19:15:04.119Z,101196.00
2022-11-05T19:17:36.344Z,101202.00
2022-11-05T19:20:08.048Z,101200.00
2022-11-05T19:22:38.103Z,101207.00
2022-11-05T19:25:11.700Z,101199.00
2022-11-05T19:27:42.669Z,101200.00
2022-11-05T19:30:13.602Z,101208.00
2022-11-05T19:32:43.417Z,101208.00
2022-11-05T19:35:13.310Z,101207.00
2022-11-05T19:37:43.152Z,101216.00
2022-11-05T19:40:15.746Z,101216.00
2022-11-05T19:42:45.607Z,101213.00
2022-11-05T19:45:44.149Z,101212.00
2022-11-05T19:48:05.306Z,101202.00
2022-11-05T19:50:36.019Z,101213.00
2022-11-05T19:53:06.039Z,101223.00
2022-11-05T19:55:44.175Z,101224.00
2022-11-05T19:58:14.690Z,101216.00
2022-11-05T20:00:45.494Z,101213.00
2022-11-05T20:03:16.080Z,101216.00
2022-11-05T20:05:46.079Z,101215.00
2022-11-05T20:08:15.904Z,101222.00
2022-11-05T20:10:48.335Z,101219.00
2022-11-05T20:13:20.108Z,101209.00
2022-11-05T20:15:50.390Z,101208.00
2022-11-05T20:18:20.723Z,101216.00
2022-11-05T20:20:50.902Z,101208.00
2022-11-05T20:23:20.731Z,101214.00
2022-11-05T20:25:53.137Z,101218.00
2022-11-05T20:28:22.979Z,101216.00
2022-11-05T20:30:52.972Z,101220.00
2022-11-05T20:33:23.290Z,101221.00
2022-11-05T20:35:53.178Z,101228.00
2022-11-05T20:38:23.207Z,101231.00
2022-11-05T20:40:56.223Z,101225.00
2022-11-05T20:43:30.159Z,101220.00
2022-11-05T20:46:01.229Z,101229.00
2022-11-05T20:48:34.552Z,101229.00
2022-11-05T20:51:09.024Z,101232.00
2022-11-05T20:53:39.682Z,101231.00
2022-11-05T20:56:18.983Z,101232.00
2022-11-05T20:58:49.152Z,101241.00
2022-11-05T21:01:20.023Z,101238.00
2022-11-05T21:03:50.915Z,101239.00
2022-11-05T21:06:21.132Z,101242.00
2022-11-05T21:08:52.370Z,101235.00
2022-11-05T21:11:25.085Z,101234.00
2022-11-05T21:13:54.941Z,101228.00
2022-11-05T21:16:24.951Z,101229.00
2022-11-05T21:18:54.817Z,101238.00
2022-11-05T21:21:24.682Z,101237.00
2022-11-05T21:23:54.523Z,101239.00
2022-11-05T21:26:28.193Z,101251.00
2022-11-05T21:28:58.043Z,101251.00
2022-11-05T21:31:27.911Z,101239.00
2022-11-05T21:33:57.720Z,101254.00
2022-11-05T21:36:27.549Z,101248.00
2022-11-05T21:38:57.379Z,101251.00
2022-11-05T21:41:29.985Z,101254.00
2022-11-05T21:43:59.890Z,101246.00
2022-11-05T21:46:29.767Z,101244.00
2022-11-05T21:48:59.587Z,101235.00
2022-11-05T21:51:42.010Z,101232.00
2022-11-05T21:54:25.474Z,101235.00
2022-11-05T21:57:11.027Z,101226.00
2022-11-05T21:59:56.480Z,101229.00
2022-11-05T22:02:28.545Z,101227.00
2022-11-05T22:05:00.419Z,101232.00
2022-11-05T22:07:34.126Z,101246.00
2022-11-05T22:10:04.699Z,101233.00
2022-11-05T22:12:37.236Z,101236.00
2022-11-05T22:15:08.591Z,101241.00
2022-11-05T22:17:42.527Z,101238.00
2022-11-05T22:20:15.290Z,101239.00
2022-11-05T22:22:45.376Z,101237.00
2022-11-05T22:25:16.063Z,101241.00
2022-11-05T22:27:48.973Z,101237.00
2022-11-05T22:30:19.353Z,101243.00
2022-11-05T22:32:49.163Z,101234.00
2022-11-05T22:35:19.049Z,101234.00
2022-11-05T22:37:48.854Z,101225.00
2022-11-05T22:40:21.137Z,101237.00
2022-11-05T22:42:55.754Z,101231.00
2022-11-05T22:45:25.571Z,101237.00
2022-11-05T22:47:55.383Z,101248.00
2022-11-05T22:50:25.230Z,101234.00
2022-11-05T22:52:55.191Z,101236.00
2022-11-05T22:55:25.032Z,101242.00
2022-11-05T22:57:57.451Z,101236.00
2022-11-05T23:00:38.423Z,101233.00
2022-11-05T23:03:08.415Z,101235.00
2022-11-05T23:05:38.299Z,101228.00
2022-11-05T23:08:21.349Z,101224.00
2022-11-05T23:11:03.728Z,101230.00
2022-11-05T23:13:36.144Z,101228.00
2022-11-05T23:16:18.611Z,101237.00
2022-11-05T23:19:00.947Z,101236.00
2022-11-05T23:21:43.298Z,101238.00
2022-11-05T23:24:14.542Z,101231.00
2022-11-05T23:26:54.014Z,101233.00
2022-11-05T23:29:28.967Z,101234.00
2022-11-05T23:32:11.329Z,101228.00
2022-11-05T23:34:41.405Z,101229.00
2022-11-05T23:37:23.896Z,101230.00
2022-11-05T23:39:53.950Z,101232.00
2022-11-05T23:42:36.655Z,101246.00
2022-11-05T23:45:22.914Z,101235.00
2022-11-05T23:48:05.610Z,101242.00
2022-11-05T23:50:39.633Z,101233.00
2022-11-05T23:53:10.160Z,101228.00
2022-11-05T23:55:40.489Z,101233.00
2022-11-05T23:58:11.496Z,101232.00
